Time;durP1;ratioP1;P1;durP2;ratioP2;P2;SDS_P1;SDS_P2;PMS_P1;PMS_P2;Temp;Humidity;BMP_temperature;BMP_pressure;BME280_temperature;BME280_humidity;BME280_pressure;Samples;Min_cycle;Max_cycle;Signal;HPM_P1;HPM_P2
2022/07/20 00:00:38;;;;;;;8.77;4.07;;;;;;;29.12;27.82;101071.53;5137136;27;20050;-50
2022/07/20 00:03:12;;;;;;;11.00;4.00;;;;;;;29.07;28.02;101072.69;5100971;27;20051;-52
2022/07/20 00:05:41;;;;;;;12.77;4.53;;;;;;;29.04;28.12;101070.63;5128747;27;20046;-50
2022/07/20 00:08:09;;;;;;;12.32;4.65;;;;;;;28.99;28.23;101071.00;5108264;28;20036;-50
2022/07/20 00:13:24;;;;;;;9.73;4.03;;;;;;;28.99;28.42;101065.38;5115207;27;20039;-52
2022/07/20 00:15:51;;;;;;;11.77;4.18;;;;;;;28.96;28.33;101066.97;5124536;27;20043;-52
2022/07/20 00:18:19;;;;;;;11.65;4.28;;;;;;;28.94;28.43;101068.56;5124258;27;20397;-51
2022/07/20 00:20:47;;;;;;;13.43;4.20;;;;;;;28.92;28.35;101070.94;5136511;27;20039;-56
2022/07/20 00:23:14;;;;;;;12.60;4.30;;;;;;;28.91;28.42;101063.69;5130395;27;20054;-53
2022/07/20 00:25:42;;;;;;;9.23;4.00;;;;;;;28.89;28.42;101059.28;5127445;27;20503;-49
2022/07/20 00:28:10;;;;;;;11.00;4.25;;;;;;;28.87;28.59;101058.88;5120912;27;20031;-50
2022/07/20 00:30:38;;;;;;;11.73;4.20;;;;;;;28.87;28.55;101066.50;5136393;27;20110;-51
2022/07/20 00:33:05;;;;;;;11.50;4.53;;;;;;;28.84;28.27;101056.84;5124399;27;20032;-50
2022/07/20 00:35:33;;;;;;;8.73;4.07;;;;;;;28.81;28.86;101054.00;5103532;27;20035;-47
2022/07/20 00:38:01;;;;;;;9.30;4.15;;;;;;;28.79;28.84;101065.63;5119843;27;20035;-48
2022/07/20 00:40:28;;;;;;;9.68;4.00;;;;;;;28.77;28.81;101058.78;5134048;27;20050;-50
2022/07/20 00:42:56;;;;;;;10.10;3.97;;;;;;;28.70;29.05;101062.34;5129659;27;20036;-48
2022/07/20 00:45:24;;;;;;;10.20;4.43;;;;;;;28.62;29.23;101057.84;5132918;27;20067;-49
2022/07/20 00:47:51;;;;;;;9.60;3.90;;;;;;;28.55;29.33;101052.16;5132443;27;20116;-51
2022/07/20 00:50:19;;;;;;;11.65;4.50;;;;;;;28.47;29.58;101056.91;5121263;27;20401;-48
2022/07/20 00:52:46;;;;;;;13.20;4.28;;;;;;;28.41;29.32;101056.41;5115447;27;20043;-49
2022/07/20 00:55:14;;;;;;;11.95;4.30;;;;;;;28.35;29.75;101057.94;5120678;27;20043;-51
2022/07/20 00:57:42;;;;;;;9.68;3.78;;;;;;;28.28;29.90;101057.88;5120138;27;20039;-50
2022/07/20 01:00:10;;;;;;;10.43;3.85;;;;;;;28.22;29.86;101051.00;5136031;27;20078;-49
2022/07/20 01:02:39;;;;;;;12.40;4.28;;;;;;;28.16;30.30;101052.53;5098567;27;20043;-49
2022/07/20 01:05:14;;;;;;;15.57;3.95;;;;;;;28.12;30.56;101057.28;5124333;27;20506;-48
2022/07/20 01:07:50;;;;;;;14.02;4.50;;;;;;;28.09;30.47;101056.03;5132555;27;20063;-51
2022/07/20 01:10:19;;;;;;;10.15;4.07;;;;;;;28.13;30.41;101076.50;5134878;27;20046;-50
2022/07/20 01:12:48;;;;;;;10.98;3.92;;;;;;;28.17;30.26;101108.19;5134478;27;20039;-51
2022/07/20 01:15:17;;;;;;;11.30;4.20;;;;;;;28.18;30.49;101069.78;5117078;27;20084;-47
2022/07/20 01:17:45;;;;;;;9.30;4.57;;;;;;;28.08;30.65;101062.06;5121027;27;20031;-50
2022/07/20 01:20:16;;;;;;;12.65;4.60;;;;;;;27.96;31.02;101065.91;5126927;27;20058;-50
2022/07/20 01:22:47;;;;;;;8.80;4.40;;;;;;;27.93;30.99;101084.28;5114489;27;20050;-53
2022/07/20 01:25:15;;;;;;;11.10;4.25;;;;;;;27.99;30.98;101079.94;5134684;27;20036;-56
2022/07/20 01:27:42;;;;;;;11.70;4.43;;;;;;;28.03;30.95;101066.81;5135396;27;20118;-51
2022/07/20 01:30:11;;;;;;;10.02;4.05;;;;;;;28.04;30.87;101074.03;5123230;27;20032;-50
2022/07/20 01:32:38;;;;;;;13.90;4.88;;;;;;;28.06;31.04;101081.22;5117423;27;20066;-51
2022/07/20 01:35:06;;;;;;;8.43;4.10;;;;;;;28.04;31.03;101090.00;5129895;27;20054;-51
2022/07/20 01:37:34;;;;;;;15.60;4.97;;;;;;;28.02;31.03;101096.00;5135535;27;20484;-53
2022/07/20 01:40:02;;;;;;;16.13;4.95;;;;;;;27.99;31.05;101104.34;5133472;27;20051;-52
2022/07/20 01:42:30;;;;;;;9.05;4.45;;;;;;;27.93;31.24;101095.50;5110278;27;20067;-55
2022/07/20 01:44:58;;;;;;;14.80;4.75;;;;;;;27.88;31.44;101095.00;5135260;27;20049;-52
2022/07/20 01:47:25;;;;;;;12.55;4.57;;;;;;;27.86;31.62;101094.59;5135118;27;20031;-54
2022/07/20 01:49:53;;;;;;;8.27;4.30;;;;;;;27.82;31.78;101100.09;5122588;27;20035;-50
2022/07/20 01:52:21;;;;;;;9.43;4.20;;;;;;;27.83;31.64;101107.38;5108794;27;20039;-51
2022/07/20 01:54:48;;;;;;;10.45;4.32;;;;;;;27.80;31.88;101108.88;5134495;27;20523;-54
2022/07/20 01:57:16;;;;;;;13.05;4.60;;;;;;;27.76;31.89;101107.25;5134993;27;20395;-55
2022/07/20 01:59:43;;;;;;;13.63;5.30;;;;;;;27.69;31.73;101096.75;5109636;27;20039;-57
2022/07/20 02:02:11;;;;;;;12.75;5.05;;;;;;;27.58;32.28;101093.78;5129551;27;20039;-55
2022/07/20 02:04:39;;;;;;;11.18;4.43;;;;;;;27.47;32.64;101095.63;5134386;27;20047;-49
2022/07/20 02:07:06;;;;;;;9.68;4.07;;;;;;;27.36;33.11;101092.66;5132946;27;20081;-52
2022/07/20 02:09:34;;;;;;;14.07;4.55;;;;;;;27.26;33.27;101078.50;5133394;27;20049;-51
2022/07/20 02:12:02;;;;;;;10.98;4.57;;;;;;;27.11;33.73;101077.47;5129388;27;20035;-49
2022/07/20 02:14:29;;;;;;;11.90;4.60;;;;;;;26.99;34.03;101075.66;5134330;27;20046;-54
2022/07/20 02:16:57;;;;;;;12.32;4.38;;;;;;;26.93;34.39;101077.16;5096241;27;20458;-55
2022/07/20 02:19:25;;;;;;;12.65;4.88;;;;;;;26.90;34.07;101072.31;5131783;27;20070;-52
2022/07/20 02:21:52;;;;;;;11.85;4.70;;;;;;;26.91;34.32;101073.91;5103343;27;20050;-49
2022/07/20 02:24:20;;;;;;;12.10;4.47;;;;;;;26.90;34.02;101080.69;5130414;27;20047;-51
2022/07/20 02:26:47;;;;;;;16.45;4.57;;;;;;;26.85;34.24;101081.00;5134156;27;20034;-50
2022/07/20 02:29:15;;;;;;;12.73;4.40;;;;;;;26.85;34.17;101081.00;5131719;27;20049;-50
2022/07/20 02:31:43;;;;;;;9.15;4.13;;;;;;;26.84;34.27;101080.19;5122793;27;20044;-51
2022/07/20 02:34:11;;;;;;;8.90;4.45;;;;;;;26.85;34.08;101093.00;5134319;27;20378;-52
2022/07/20 02:36:38;;;;;;;13.23;4.60;;;;;;;26.92;33.65;101106.31;5131596;27;20041;-52
2022/07/20 02:39:07;;;;;;;8.95;4.15;;;;;;;27.00;33.16;101102.44;5133690;27;20046;-51
2022/07/20 02:41:35;;;;;;;20.63;13.20;;;;;;;27.06;33.33;101105.72;5127814;27;20043;-52
2022/07/20 02:44:02;;;;;;;10.48;5.47;;;;;;;27.12;32.86;101102.25;5119961;27;20050;-53
2022/07/20 02:46:30;;;;;;;14.13;9.40;;;;;;;27.17;32.97;101101.91;5113493;28;20038;-52
2022/07/20 02:48:58;;;;;;;15.93;8.07;;;;;;;27.19;33.15;101116.38;5131602;28;20067;-50
2022/07/20 02:51:27;;;;;;;11.70;4.75;;;;;;;27.19;33.23;101107.19;5122084;28;20158;-52
2022/07/20 02:53:54;;;;;;;8.90;4.90;;;;;;;27.16;33.31;101099.50;5131082;28;20485;-53
2022/07/20 02:56:22;;;;;;;16.27;8.82;;;;;;;27.09;33.69;101111.38;5131939;28;20035;-54
2022/07/20 02:58:54;;;;;;;12.48;5.90;;;;;;;27.06;33.95;101106.53;5129920;28;20047;-51
2022/07/20 03:01:22;;;;;;;9.75;4.72;;;;;;;27.03;34.29;101115.66;5115375;27;20047;-53
2022/07/20 03:03:50;;;;;;;17.08;5.43;;;;;;;26.99;34.38;101123.22;5136542;27;20058;-55
2022/07/20 03:06:20;;;;;;;11.60;5.18;;;;;;;26.94;34.99;101124.31;5138194;27;20042;-54
2022/07/20 03:08:47;;;;;;;14.07;5.88;;;;;;;26.89;35.60;101116.25;5120098;27;20052;-52
2022/07/20 03:11:15;;;;;;;12.70;6.07;;;;;;;26.85;36.28;101120.97;5130813;27;20138;-55
2022/07/20 03:13:43;;;;;;;15.50;6.40;;;;;;;26.81;36.74;101122.06;5135022;27;20043;-54
2022/07/20 03:16:11;;;;;;;15.27;6.78;;;;;;;26.75;37.44;101127.16;5131644;27;20035;-50
2022/07/20 03:18:39;;;;;;;14.50;7.45;;;;;;;26.69;37.81;101129.44;5136132;27;20098;-50
2022/07/20 03:21:07;;;;;;;14.05;7.45;;;;;;;26.68;38.12;101138.22;5137290;27;20057;-50
2022/07/20 03:23:34;;;;;;;13.82;7.15;;;;;;;26.63;38.70;101142.13;5131302;27;20066;-49
2022/07/20 03:26:02;;;;;;;17.88;7.25;;;;;;;26.60;38.87;101151.22;5137908;27;20043;-50
2022/07/20 03:28:29;;;;;;;15.18;8.40;;;;;;;26.56;39.39;101136.41;5132264;27;20043;-53
2022/07/20 03:30:58;;;;;;;20.17;8.80;;;;;;;26.52;40.11;101132.69;5137364;27;20133;-55
2022/07/20 03:33:26;;;;;;;23.73;10.50;;;;;;;26.50;41.33;101143.41;5137178;27;20088;-54
2022/07/20 03:35:54;;;;;;;21.20;10.07;;;;;;;26.45;41.60;101143.72;5137708;27;20035;-54
2022/07/20 03:38:21;;;;;;;18.85;10.25;;;;;;;26.41;41.86;101145.63;5136795;27;20413;-50
2022/07/20 03:40:49;;;;;;;18.98;10.75;;;;;;;26.38;42.50;101151.97;5125918;27;20413;-50
2022/07/20 03:43:17;;;;;;;20.42;10.82;;;;;;;26.35;43.07;101157.09;5137490;27;20046;-50
2022/07/20 03:45:44;;;;;;;19.42;11.23;;;;;;;26.37;43.35;101167.94;5129178;27;20043;-49
2022/07/20 03:48:12;;;;;;;25.90;12.77;;;;;;;26.38;43.52;101174.31;5137559;27;20035;-50
2022/07/20 03:50:39;;;;;;;19.20;11.32;;;;;;;26.36;43.45;101177.47;5129291;27;20530;-49
2022/07/20 03:53:07;;;;;;;18.77;10.73;;;;;;;26.39;43.53;101189.91;5132177;27;20043;-53
2022/07/20 03:55:35;;;;;;;21.13;10.77;;;;;;;26.41;43.51;101185.59;5137042;27;20039;-50
2022/07/20 03:58:02;;;;;;;20.00;10.25;;;;;;;26.41;43.15;101181.94;5137246;27;20047;-50
2022/07/20 04:00:30;;;;;;;21.20;10.40;;;;;;;26.40;42.88;101192.31;5131323;27;20054;-50
2022/07/20 04:02:58;;;;;;;15.52;9.13;;;;;;;26.41;42.33;101195.94;5115054;27;20063;-51
2022/07/20 04:05:26;;;;;;;20.63;9.15;;;;;;;26.40;42.06;101205.50;5132763;27;20055;-51
2022/07/20 04:07:53;;;;;;;17.50;9.82;;;;;;;26.38;41.74;101210.63;5135522;27;20066;-51
2022/07/20 04:10:21;;;;;;;16.15;9.00;;;;;;;26.36;41.70;101216.59;5115963;27;20043;-49
2022/07/20 04:12:51;;;;;;;15.20;9.35;;;;;;;26.35;41.68;101221.38;5136719;27;20035;-50
2022/07/20 04:15:19;;;;;;;18.85;9.57;;;;;;;26.34;42.21;101230.94;5127767;27;20042;-50
2022/07/20 04:17:47;;;;;;;19.77;9.18;;;;;;;26.32;42.61;101238.06;5136704;27;20050;-49
2022/07/20 04:20:14;;;;;;;17.38;9.60;;;;;;;26.32;42.86;101236.06;5133628;27;20134;-51
2022/07/20 04:22:42;;;;;;;21.27;10.50;;;;;;;26.32;43.85;101235.28;5129594;27;20122;-50
2022/07/20 04:25:09;;;;;;;23.17;11.32;;;;;;;26.27;44.73;101235.56;5130171;27;20036;-52
2022/07/20 04:27:37;;;;;;;23.55;13.25;;;;;;;26.25;45.32;101241.50;5128578;27;20093;-49
2022/07/20 04:30:05;;;;;;;26.70;14.52;;;;;;;26.21;46.92;101249.00;5113600;27;20146;-51
2022/07/20 04:32:33;;;;;;;28.52;15.40;;;;;;;26.16;47.75;101252.06;5118447;27;20039;-51
2022/07/20 04:35:01;;;;;;;28.48;15.77;;;;;;;26.15;48.84;101244.88;5131927;27;20035;-50
2022/07/20 04:37:28;;;;;;;27.60;16.83;;;;;;;26.12;49.21;101256.75;5134260;27;20035;-50
2022/07/20 04:39:56;;;;;;;27.60;17.20;;;;;;;26.10;49.74;101253.53;5129101;27;20130;-51
2022/07/20 04:42:23;;;;;;;35.00;18.08;;;;;;;26.09;50.75;101249.13;5113049;27;20050;-50
2022/07/20 04:44:51;;;;;;;31.27;19.25;;;;;;;26.07;51.33;101249.50;5124726;27;20039;-52
2022/07/20 04:47:19;;;;;;;28.85;18.75;;;;;;;26.07;51.18;101248.66;4417961;27;10000259;-53
2022/07/20 04:49:46;;;;;;;29.25;18.25;;;;;;;26.05;51.80;101248.22;5113516;27;20047;-53
2022/07/20 04:52:14;;;;;;;35.70;18.92;;;;;;;26.02;51.76;101257.31;5130978;27;20043;-49
2022/07/20 04:54:42;;;;;;;32.03;19.70;;;;;;;26.05;52.30;101264.97;5112720;27;20111;-52
2022/07/20 04:57:10;;;;;;;28.20;18.15;;;;;;;26.08;52.04;101262.28;5124480;27;20035;-51
2022/07/20 04:59:37;;;;;;;29.35;17.48;;;;;;;26.09;52.16;101263.88;5130173;27;20050;-51
2022/07/20 05:02:05;;;;;;;31.85;19.65;;;;;;;26.11;52.05;101274.69;5126378;27;20066;-53
2022/07/20 05:04:33;;;;;;;31.70;18.50;;;;;;;26.11;52.14;101286.69;5111209;27;20171;-54
2022/07/20 05:07:01;;;;;;;31.05;20.02;;;;;;;26.13;52.17;101280.75;5125191;27;20541;-55
2022/07/20 05:09:29;;;;;;;33.90;19.00;;;;;;;26.12;52.31;101284.69;5125694;27;20038;-56
2022/07/20 05:11:56;;;;;;;29.83;19.13;;;;;;;26.12;52.31;101273.50;5125935;27;20050;-54
2022/07/20 05:14:24;;;;;;;29.45;18.40;;;;;;;26.11;52.52;101294.25;5123164;27;20045;-54
2022/07/20 05:16:51;;;;;;;30.65;19.77;;;;;;;26.10;52.79;101281.47;5126171;27;20035;-53
2022/07/20 05:19:19;;;;;;;29.95;18.45;;;;;;;26.09;51.85;101282.63;5126241;27;20046;-50
2022/07/20 05:21:47;;;;;;;32.15;17.35;;;;;;;26.09;52.10;101272.25;5121708;27;20147;-52
2022/07/20 05:24:14;;;;;;;26.15;17.83;;;;;;;26.10;51.95;101276.69;5119226;27;20050;-50
2022/07/20 05:26:42;;;;;;;25.88;17.85;;;;;;;26.09;52.14;101263.88;5128085;27;20031;-55
2022/07/20 05:29:10;;;;;;;27.55;18.30;;;;;;;26.09;52.55;101268.66;5108438;27;20039;-50
2022/07/20 05:31:38;;;;;;;27.90;18.38;;;;;;;26.06;52.43;101273.00;5121605;27;20059;-50
2022/07/20 05:34:05;;;;;;;27.80;17.77;;;;;;;26.02;52.33;101274.06;5131190;27;20046;-50
2022/07/20 05:36:33;;;;;;;30.02;17.95;;;;;;;26.01;52.50;101278.06;5107236;27;20047;-54
2022/07/20 05:39:01;;;;;;;27.98;17.58;;;;;;;26.02;52.42;101279.66;5110370;27;20043;-52
2022/07/20 05:41:28;;;;;;;24.75;16.52;;;;;;;26.03;52.62;101286.88;5123936;27;20531;-50
2022/07/20 05:43:56;;;;;;;30.35;17.27;;;;;;;26.04;52.48;101296.88;5126285;27;20039;-52
2022/07/20 05:46:24;;;;;;;25.08;16.90;;;;;;;26.04;52.58;101306.06;5131492;27;20044;-53
2022/07/20 05:48:51;;;;;;;24.55;16.02;;;;;;;26.03;52.45;101321.19;5129027;27;20046;-54
2022/07/20 05:51:20;;;;;;;25.33;16.95;;;;;;;26.02;52.72;101327.13;5130970;27;20058;-53
2022/07/20 05:53:58;;;;;;;27.45;16.10;;;;;;;26.00;52.55;101326.69;5126146;27;20043;-50
2022/07/20 05:56:26;;;;;;;24.40;16.35;;;;;;;25.97;52.97;101331.00;5107533;27;20039;-53
2022/07/20 05:58:53;;;;;;;24.20;16.58;;;;;;;25.97;52.78;101344.16;5107532;27;20532;-50
2022/07/20 06:01:21;;;;;;;30.77;16.75;;;;;;;25.99;53.11;101350.22;5106266;27;20573;-50
2022/07/20 06:03:49;;;;;;;27.95;16.80;;;;;;;26.00;52.92;101349.03;5130472;27;20058;-51
2022/07/20 06:06:16;;;;;;;30.40;16.73;;;;;;;26.00;52.61;101360.19;5112827;27;20385;-53
2022/07/20 06:08:44;;;;;;;26.50;17.30;;;;;;;25.97;52.95;101346.97;5127824;27;20050;-51
2022/07/20 06:11:32;;;;;;;25.95;15.73;;;;;;;25.93;52.70;101367.25;5107448;27;20062;-54
2022/07/20 06:14:00;;;;;;;28.48;16.25;;;;;;;25.92;52.46;101371.19;5105079;27;20042;-53
2022/07/20 06:16:28;;;;;;;27.55;15.73;;;;;;;25.91;52.07;101374.34;5130993;27;20782;-55
2022/07/20 06:18:56;;;;;;;28.95;15.57;;;;;;;25.87;52.55;101379.03;5130679;27;20084;-52
2022/07/20 06:21:23;;;;;;;33.92;16.90;;;;;;;25.83;52.52;101401.25;5124685;27;20489;-52
2022/07/20 06:23:51;;;;;;;27.67;15.63;;;;;;;25.79;52.55;101394.75;5124738;27;20036;-50
2022/07/20 06:26:21;;;;;;;30.45;15.15;;;;;;;25.79;52.59;101397.53;5125857;27;20491;-51
2022/07/20 06:28:48;;;;;;;28.52;15.30;;;;;;;25.81;52.71;101403.59;5132053;27;20131;-49
2022/07/20 06:31:16;;;;;;;26.60;14.45;;;;;;;25.83;52.76;101406.84;5130621;27;20043;-50
2022/07/20 06:33:44;;;;;;;28.67;14.57;;;;;;;25.85;52.87;101412.84;5106894;28;20043;-48
2022/07/20 06:36:12;;;;;;;24.25;14.13;;;;;;;25.79;53.05;101417.09;5106715;28;20431;-48
2022/07/20 06:38:39;;;;;;;25.92;14.00;;;;;;;25.73;53.30;101419.31;5105850;27;20042;-51
2022/07/20 06:41:07;;;;;;;22.55;13.75;;;;;;;25.73;53.40;101435.25;5131857;27;20525;-53
2022/07/20 06:43:35;;;;;;;27.88;17.48;;;;;;;25.77;53.52;101436.16;5132295;27;20378;-56
2022/07/20 06:46:02;;;;;;;29.67;14.68;;;;;;;25.80;53.10;101443.00;5121096;27;20036;-55
2022/07/20 06:48:31;;;;;;;25.10;13.80;;;;;;;25.82;53.18;101449.88;5133647;28;20096;-56
2022/07/20 06:50:58;;;;;;;23.50;12.90;;;;;;;25.80;53.05;101452.19;5129033;28;20034;-56
2022/07/20 06:53:26;;;;;;;25.63;14.35;;;;;;;25.83;53.34;101467.41;5132881;28;20035;-55
2022/07/20 06:55:54;;;;;;;27.30;13.40;;;;;;;25.84;53.65;101488.59;5128314;28;20066;-57
2022/07/20 06:58:22;;;;;;;23.20;13.23;;;;;;;25.78;53.89;101476.06;5130352;28;20045;-56
2022/07/20 07:00:50;;;;;;;28.77;13.88;;;;;;;25.76;53.88;101484.81;5131318;28;20054;-50
2022/07/20 07:03:18;;;;;;;22.75;13.20;;;;;;;25.78;53.81;101488.03;5105422;28;20092;-53
2022/07/20 07:05:45;;;;;;;23.83;12.27;;;;;;;25.82;53.49;101496.53;5127538;28;20039;-56
2022/07/20 07:08:13;;;;;;;20.80;12.32;;;;;;;25.88;53.12;101489.53;5131351;28;20034;-54
2022/07/20 07:10:41;;;;;;;17.77;10.95;;;;;;;25.93;52.98;101494.88;5132237;28;20118;-51
2022/07/20 07:13:08;;;;;;;24.80;11.25;;;;;;;25.87;52.93;101488.72;5123399;28;20035;-53
2022/07/20 07:15:36;;;;;;;24.27;11.88;;;;;;;25.88;53.24;101481.97;5132887;28;20044;-56
2022/07/20 07:18:04;;;;;;;23.60;12.05;;;;;;;25.93;53.81;101487.31;5123277;28;20503;-55
2022/07/20 07:20:31;;;;;;;21.70;10.98;;;;;;;25.91;53.49;101492.44;5124199;28;20043;-57
2022/07/20 07:22:59;;;;;;;19.80;10.63;;;;;;;25.89;53.53;101489.19;5130502;28;20110;-55
2022/07/20 07:25:27;;;;;;;20.13;10.10;;;;;;;25.84;53.51;101508.94;5127489;28;20039;-51
2022/07/20 07:27:54;;;;;;;24.90;10.23;;;;;;;25.81;53.67;101515.25;5125428;28;20047;-54
2022/07/20 07:30:22;;;;;;;20.38;10.65;;;;;;;25.86;53.60;101517.00;5122472;28;20044;-53
2022/07/20 07:32:50;;;;;;;20.17;11.02;;;;;;;25.89;53.91;101507.91;5121588;28;20040;-55
2022/07/20 07:35:18;;;;;;;19.98;11.27;;;;;;;25.89;53.91;101519.09;5133632;28;20054;-53
2022/07/20 07:37:45;;;;;;;22.52;11.32;;;;;;;25.90;53.50;101529.06;5131055;28;20050;-58
2022/07/20 07:40:13;;;;;;;20.92;10.52;;;;;;;25.94;53.51;101524.41;5130317;28;20047;-56
2022/07/20 07:42:40;;;;;;;17.73;10.55;;;;;;;25.96;53.55;101540.81;5127600;28;20074;-52
2022/07/20 07:45:09;;;;;;;21.75;10.55;;;;;;;25.92;53.16;101537.91;5123509;28;20035;-53
2022/07/20 07:47:37;;;;;;;22.65;10.45;;;;;;;25.92;53.09;101554.66;5123581;27;20043;-55
2022/07/20 07:50:05;;;;;;;20.27;10.43;;;;;;;25.84;52.94;101559.22;5137002;27;20118;-53
2022/07/20 07:52:33;;;;;;;22.50;11.05;;;;;;;25.81;53.35;101557.13;5134522;27;20046;-52
2022/07/20 07:55:00;;;;;;;23.30;10.93;;;;;;;25.81;53.25;101570.25;5114216;27;20499;-54
2022/07/20 07:57:28;;;;;;;21.95;10.60;;;;;;;25.83;53.08;101591.09;5131540;27;20032;-57
2022/07/20 07:59:56;;;;;;;21.98;11.20;;;;;;;25.78;52.88;101585.75;5127560;27;20050;-54
2022/07/20 08:02:23;;;;;;;23.50;10.48;;;;;;;25.79;53.06;101575.41;5129997;27;20050;-55
2022/07/20 08:04:51;;;;;;;19.33;10.68;;;;;;;25.79;53.10;101570.63;5133868;27;20039;-57
2022/07/20 08:07:19;;;;;;;17.00;11.00;;;;;;;25.75;53.70;101568.91;5133655;27;20042;-56
2022/07/20 08:09:46;;;;;;;23.55;11.82;;;;;;;25.75;53.52;101572.50;5135979;27;20481;-57
2022/07/20 08:12:14;;;;;;;20.23;10.40;;;;;;;25.78;53.05;101560.59;5117807;27;20038;-56
2022/07/20 08:14:42;;;;;;;25.83;11.07;;;;;;;25.80;52.66;101552.69;5135121;27;20045;-58
2022/07/20 08:17:09;;;;;;;22.88;10.15;;;;;;;25.75;52.79;101552.94;5113331;27;20381;-57
2022/07/20 08:19:37;;;;;;;19.25;9.82;;;;;;;25.73;52.93;101541.31;5134968;27;20118;-58
2022/07/20 08:22:05;;;;;;;22.17;10.27;;;;;;;25.79;52.64;101534.34;5115623;27;20597;-52
2022/07/20 08:24:32;;;;;;;23.90;10.55;;;;;;;25.81;52.75;101536.75;5135529;27;20053;-57
2022/07/20 08:27:00;;;;;;;21.52;10.02;;;;;;;25.81;52.71;101548.75;5135971;27;20061;-58
2022/07/20 08:29:27;;;;;;;23.83;9.65;;;;;;;25.78;52.52;101554.22;5133101;27;20043;-55
2022/07/20 08:31:55;;;;;;;21.27;10.40;;;;;;;25.85;52.32;101555.22;5136250;27;20043;-53
2022/07/20 08:34:23;;;;;;;23.98;9.93;;;;;;;25.93;51.07;101559.91;5133981;27;20396;-56
2022/07/20 08:36:50;;;;;;;21.08;10.52;;;;;;;25.98;51.56;101560.78;5132320;27;20076;-56
2022/07/20 08:39:18;;;;;;;22.70;9.68;;;;;;;25.99;51.41;101552.06;5136483;27;20036;-56
2022/07/20 08:41:46;;;;;;;20.15;9.93;;;;;;;26.01;51.31;101557.31;5118011;27;20051;-52
2022/07/20 08:44:14;;;;;;;20.17;9.27;;;;;;;26.05;51.09;101558.22;5125645;27;20050;-53
2022/07/20 08:46:45;;;;;;;21.92;10.32;;;;;;;26.06;49.97;101557.88;5131864;27;20394;-53
2022/07/20 08:49:14;;;;;;;18.88;9.68;;;;;;;26.08;50.78;101563.91;5122626;27;20066;-54
2022/07/20 08:51:42;;;;;;;19.98;9.35;;;;;;;26.09;51.15;101565.53;5135880;27;20039;-53
2022/07/20 08:54:09;;;;;;;18.52;9.50;;;;;;;26.09;51.13;101564.72;5129064;27;20045;-53
2022/07/20 08:56:37;;;;;;;22.23;10.00;;;;;;;26.12;50.26;101564.00;5117558;27;20400;-55
2022/07/20 08:59:05;;;;;;;16.42;9.43;;;;;;;26.18;50.66;101568.16;5116013;27;20043;-53
2022/07/20 09:01:33;;;;;;;15.57;8.77;;;;;;;26.22;50.28;101569.09;5135842;27;20074;-54
2022/07/20 09:04:09;;;;;;;16.63;9.00;;;;;;;26.28;50.48;101556.47;5135644;27;20051;-54
2022/07/20 09:06:49;;;;;;;20.60;9.10;;;;;;;26.35;50.10;101556.66;5132915;27;20126;-53
2022/07/20 09:09:18;;;;;;;17.85;8.95;;;;;;;26.38;49.61;101535.56;5104830;27;20042;-54
2022/07/20 09:11:47;;;;;;;21.10;9.15;;;;;;;26.37;49.15;101524.78;5117074;27;20126;-52
2022/07/20 09:14:40;;;;;;;16.52;9.13;;;;;;;26.39;49.31;101528.03;5099979;27;20442;-53
2022/07/20 09:17:19;;;;;;;18.60;9.10;;;;;;;26.44;49.28;101533.34;5135724;27;20112;-54
2022/07/20 09:19:58;;;;;;;15.38;8.90;;;;;;;26.47;49.27;101546.59;5112515;27;20382;-50
2022/07/20 09:22:37;;;;;;;20.08;9.32;;;;;;;26.51;49.11;101567.06;5135418;27;20073;-50
2022/07/20 09:25:07;;;;;;;16.77;9.02;;;;;;;26.56;48.99;101591.97;5133003;27;20043;-52
2022/07/20 09:27:36;;;;;;;14.80;7.95;;;;;;;26.60;48.78;101612.44;5120573;27;20066;-52
2022/07/20 09:30:06;;;;;;;19.00;8.50;;;;;;;26.64;48.49;101616.16;5130501;27;20494;-56
2022/07/20 09:32:48;;;;;;;15.55;8.50;;;;;;;26.66;48.13;101605.41;5116959;27;20382;-54
2022/07/20 09:35:16;;;;;;;16.05;7.80;;;;;;;26.68;47.85;101613.47;5113574;27;20126;-51
2022/07/20 09:37:44;;;;;;;14.35;8.25;;;;;;;26.67;47.44;101612.63;5132688;27;20040;-55
2022/07/20 09:40:11;;;;;;;16.20;8.38;;;;;;;26.66;47.20;101602.63;5124959;27;20044;-53
2022/07/20 09:42:42;;;;;;;15.68;8.13;;;;;;;26.67;47.88;101607.03;5133531;27;20125;-51
2022/07/20 09:45:27;;;;;;;14.45;7.88;;;;;;;26.64;47.42;101604.97;5130210;27;20088;-50
2022/07/20 09:48:12;;;;;;;17.63;8.48;;;;;;;26.61;47.16;101600.09;5135613;27;20031;-53
2022/07/20 09:50:42;;;;;;;14.00;7.57;;;;;;;26.65;47.95;101598.22;5127654;27;20036;-52
2022/07/20 09:53:11;;;;;;;15.40;8.73;;;;;;;26.69;48.12;101603.88;5136934;27;20051;-53
2022/07/20 09:55:40;;;;;;;18.58;8.85;;;;;;;26.71;48.83;101612.72;5131415;27;20036;-49
2022/07/20 09:58:08;;;;;;;13.55;7.55;;;;;;;26.73;48.60;101594.44;5114689;27;20035;-54
2022/07/20 10:00:37;;;;;;;16.25;9.00;;;;;;;26.77;47.71;101595.34;5112486;27;20050;-52
2022/07/20 10:03:13;;;;;;;17.75;8.68;;;;;;;26.77;47.90;101594.50;5134800;27;20114;-52
2022/07/20 10:05:41;;;;;;;15.10;8.35;;;;;;;26.76;48.28;101581.72;5116289;27;20059;-55
2022/07/20 10:08:09;;;;;;;16.48;8.68;;;;;;;26.73;47.93;101583.25;5133747;27;20107;-51
2022/07/20 10:10:37;;;;;;;16.42;8.80;;;;;;;26.71;48.36;101580.00;5133390;27;20062;-53
2022/07/20 10:13:05;;;;;;;17.23;7.95;;;;;;;26.62;48.30;101603.69;5134720;27;20385;-56
2022/07/20 10:15:49;;;;;;;14.82;8.65;;;;;;;26.54;48.33;101619.47;5116291;27;20046;-52
2022/07/20 10:18:17;;;;;;;17.10;8.23;;;;;;;26.53;48.85;101642.97;5096715;28;20383;-55
2022/07/20 10:20:49;;;;;;;17.08;7.85;;;;;;;26.54;48.72;101653.81;5125141;27;20031;-54
2022/07/20 10:23:22;;;;;;;17.42;8.50;;;;;;;26.56;48.04;101640.31;5108412;28;20039;-54
2022/07/20 10:25:50;;;;;;;13.50;8.63;;;;;;;26.60;47.54;101634.78;5128711;27;20051;-52
2022/07/20 10:28:25;;;;;;;17.30;8.40;;;;;;;26.60;44.68;101640.38;5132070;27;20045;-56
2022/07/20 10:30:55;;;;;;;11.88;7.13;;;;;;;26.70;47.58;101650.25;5125411;27;20032;-53
2022/07/20 10:33:24;;;;;;;16.63;7.57;;;;;;;26.81;47.29;101639.34;5130448;27;20031;-55
2022/07/20 10:36:41;;;;;;;16.27;7.55;;;;;;;26.90;47.74;101635.19;5115679;27;20043;-50
2022/07/20 10:38:40;;;;;;;13.88;8.07;;;;;;;26.96;47.43;101636.56;5118799;27;20035;-51
2022/07/20 10:44:20;;;;;;;13.52;7.22;;;;;;;26.97;46.24;101626.19;5134268;27;20039;-52
2022/07/20 10:46:49;;;;;;;15.02;7.50;;;;;;;26.99;46.37;101615.47;5133986;27;20118;-50
2022/07/20 10:49:17;;;;;;;12.35;7.22;;;;;;;27.02;47.08;101595.16;5099333;28;20092;-51
2022/07/20 10:51:45;;;;;;;17.15;7.40;;;;;;;27.05;46.86;101590.81;5127778;28;20071;-56
2022/07/20 10:54:31;;;;;;;14.52;8.07;;;;;;;27.07;47.39;101602.47;4402469;28;10000213;-51
2022/07/20 10:57:00;;;;;;;12.68;7.20;;;;;;;27.07;46.63;101597.66;5118608;28;20040;-54
2022/07/20 10:59:28;;;;;;;14.35;7.63;;;;;;;27.04;46.43;101587.22;5112115;28;20050;-55
2022/07/20 11:01:55;;;;;;;13.95;6.88;;;;;;;27.01;45.05;101587.91;5111867;28;20055;-55
2022/07/20 11:04:23;;;;;;;12.18;6.95;;;;;;;27.04;46.61;101595.59;5128008;28;20112;-52
2022/07/20 11:06:51;;;;;;;11.93;7.22;;;;;;;27.06;45.79;101612.84;5122284;28;20039;-55
2022/07/20 11:09:18;;;;;;;13.40;6.90;;;;;;;27.05;43.76;101627.97;5097896;28;20542;-53
2022/07/20 11:11:46;;;;;;;12.95;6.38;;;;;;;27.16;44.68;101622.66;5085661;28;20081;-55
2022/07/20 11:14:15;;;;;;;10.65;6.63;;;;;;;27.24;45.26;101632.88;5108603;28;20110;-54
2022/07/20 11:16:42;;;;;;;12.13;6.95;;;;;;;27.25;45.48;101630.88;5125166;28;20051;-52
2022/07/20 11:19:10;;;;;;;13.13;6.80;;;;;;;27.25;45.59;101617.72;5130359;28;20047;-55
2022/07/20 11:21:40;;;;;;;12.75;6.70;;;;;;;27.28;45.78;101608.59;5123728;27;20056;-56
2022/07/20 11:24:26;;;;;;;12.30;6.20;;;;;;;27.32;42.04;101603.88;5132752;27;20564;-52
2022/07/20 11:26:54;;;;;;;11.75;6.47;;;;;;;27.33;45.18;101599.13;5124384;27;20038;-56